Time;durP1;ratioP1;P1;durP2;ratioP2;P2;SDS_P1;SDS_P2;PMS_P1;PMS_P2;Temp;Humidity;BMP_temperature;BMP_pressure;BME280_temperature;BME280_humidity;BME280_pressure;Samples;Min_cycle;Max_cycle;Signal;HPM_P1;HPM_P2
2023/02/15 00:02:02;;;;;;;15.93;12.18;;;20.70;34.70;;;;;;5039248;28;20052;-72
2023/02/15 00:07:18;;;;;;;18.75;12.32;;;20.70;34.70;;;;;;5038759;28;20091;-72
2023/02/15 00:09:46;;;;;;;18.23;11.68;;;20.70;34.70;;;;;;5039324;28;20049;-72
2023/02/15 00:12:15;;;;;;;16.35;11.75;;;20.70;34.70;;;;;;5038679;28;20053;-73
2023/02/15 00:14:42;;;;;;;14.60;11.48;;;20.70;34.70;;;;;;5039338;28;20049;-72
2023/02/15 00:17:09;;;;;;;17.48;12.55;;;20.70;34.70;;;;;;5038315;28;20565;-72
2023/02/15 00:19:37;;;;;;;17.25;11.77;;;20.70;34.70;;;;;;5038830;28;20075;-72
2023/02/15 00:22:04;;;;;;;16.00;11.60;;;20.70;34.70;;;;;;5037661;28;20052;-68
2023/02/15 00:24:31;;;;;;;15.88;12.13;;;20.70;34.70;;;;;;5038893;28;20048;-72
2023/02/15 00:26:59;;;;;;;16.70;11.63;;;20.70;34.70;;;;;;5038283;28;20417;-72
2023/02/15 00:29:26;;;;;;;18.95;12.43;;;20.70;34.60;;;;;;5038560;28;20428;-72
2023/02/15 00:31:53;;;;;;;18.10;11.98;;;20.70;34.70;;;;;;5037096;28;20049;-72
2023/02/15 00:34:24;;;;;;;16.90;12.07;;;20.70;34.60;;;;;;5038202;28;20158;-72
2023/02/15 00:36:51;;;;;;;;;;;20.70;34.60;;;;;;5037988;28;20053;-72
2023/02/15 00:39:19;;;;;;;17.17;12.13;;;20.70;34.60;;;;;;5037373;28;19925;-72
2023/02/15 00:41:47;;;;;;;13.85;10.68;;;20.70;34.60;;;;;;5038314;28;20046;-72
2023/02/15 00:44:15;;;;;;;17.45;12.57;;;20.60;34.50;;;;;;5038501;28;20055;-72
2023/02/15 00:46:42;;;;;;;16.00;11.48;;;20.60;34.50;;;;;;5038110;28;20060;-72
2023/02/15 00:49:10;;;;;;;17.13;11.90;;;20.60;34.40;;;;;;5038095;28;20053;-72
2023/02/15 00:51:38;;;;;;;15.93;11.98;;;20.60;34.40;;;;;;5037789;28;20132;-73
2023/02/15 00:54:05;;;;;;;16.67;11.18;;;20.60;34.40;;;;;;5038201;28;20386;-72
2023/02/15 00:56:32;;;;;;;14.77;11.52;;;20.60;34.40;;;;;;5037739;28;20099;-72
2023/02/15 00:58:59;;;;;;;14.27;11.20;;;20.60;34.40;;;;;;5037770;28;20041;-72
2023/02/15 01:01:27;;;;;;;17.13;11.82;;;20.60;34.40;;;;;;5037412;28;20049;-72
2023/02/15 01:03:54;;;;;;;14.43;10.70;;;20.60;34.40;;;;;;5037833;28;20078;-72
2023/02/15 01:06:21;;;;;;;13.82;10.48;;;20.60;34.40;;;;;;5037855;28;20056;-72
2023/02/15 01:08:48;;;;;;;15.00;10.70;;;20.60;34.40;;;;;;5053538;28;20050;-72
2023/02/15 01:11:21;;;;;;;14.75;10.82;;;20.60;34.40;;;;;;5037625;28;20076;-72
2023/02/15 01:13:51;;;;;;;15.15;11.02;;;20.60;34.90;;;;;;5036789;28;20045;-72
2023/02/15 01:16:20;;;;;;;15.25;10.00;;;20.60;34.30;;;;;;5021814;28;20055;-72
2023/02/15 01:18:47;;;;;;;14.10;10.43;;;20.60;34.30;;;;;;5037284;28;20076;-72
2023/02/15 01:21:17;;;;;;;15.65;10.55;;;20.60;34.40;;;;;;5036858;28;20089;-72
2023/02/15 01:23:44;;;;;;;14.48;10.18;;;20.60;34.30;;;;;;5052769;28;20056;-72
2023/02/15 01:26:12;;;;;;;13.88;10.10;;;20.50;34.30;;;;;;5036889;28;20053;-72
2023/02/15 01:28:39;;;;;;;13.48;9.68;;;20.50;34.30;;;;;;5037905;28;20087;-72
2023/02/15 01:31:09;;;;;;;14.93;10.23;;;20.50;34.30;;;;;;5037133;28;20146;-72
2023/02/15 01:33:37;;;;;;;14.73;9.63;;;20.50;34.30;;;;;;5037299;28;20085;-72
2023/02/15 01:36:04;;;;;;;12.35;8.90;;;20.50;34.30;;;;;;5036848;28;20068;-72
2023/02/15 01:38:32;;;;;;;13.45;9.68;;;20.50;34.20;;;;;;5037651;28;20114;-72
2023/02/15 01:43:50;;;;;;;12.18;9.60;;;20.50;34.20;;;;;;5037128;28;20050;-72
2023/02/15 01:46:20;;;;;;;13.35;9.50;;;20.50;34.20;;;;;;5037092;28;20540;-72
2023/02/15 01:48:54;;;;;;;13.27;9.32;;;20.50;34.20;;;;;;5036878;28;20107;-72
2023/02/15 01:51:25;;;;;;;13.00;9.23;;;20.50;34.20;;;;;;5036659;28;20855;-72
2023/02/15 01:53:59;;;;;;;12.73;8.95;;;20.50;34.20;;;;;;5036872;28;20072;-73
2023/02/15 01:56:31;;;;;;;11.18;8.40;;;20.50;34.20;;;;;;5036928;28;20092;-72
2023/02/15 01:59:03;;;;;;;11.68;8.63;;;20.50;34.20;;;;;;5036412;28;20073;-72
2023/02/15 02:01:31;;;;;;;11.27;8.80;;;20.40;34.20;;;;;;5036637;28;20041;-72
2023/02/15 02:04:38;;;;;;;12.00;9.27;;;20.50;34.20;;;;;;5048265;28;20044;-72
2023/02/15 02:07:08;;;;;;;9.93;8.70;;;20.50;34.20;;;;;;5056378;28;20396;-72
2023/02/15 02:09:36;;;;;;;11.40;8.68;;;20.40;34.10;;;;;;5056505;28;20137;-72
2023/02/15 02:12:04;;;;;;;11.65;8.52;;;20.40;34.10;;;;;;5056108;28;20049;-72
2023/02/15 02:14:31;;;;;;;11.85;8.43;;;20.40;34.10;;;;;;5056585;28;20057;-72
2023/02/15 02:17:25;;;;;;;10.35;7.95;;;20.40;34.10;;;;;;5056572;28;20059;-72
2023/02/15 02:20:28;;;;;;;10.57;8.05;;;20.40;34.10;;;;;;5056240;28;20408;-72
2023/02/15 02:23:19;;;;;;;12.50;8.88;;;20.40;34.10;;;;;;5056572;28;20128;-72
2023/02/15 02:26:26;;;;;;;10.93;8.43;;;20.40;34.20;;;;;;5056281;28;20048;-72
2023/02/15 02:29:32;;;;;;;11.50;8.25;;;20.40;34.20;;;;;;5042103;28;20124;-72
2023/02/15 02:32:27;;;;;;;11.73;8.40;;;20.40;34.10;;;;;;5039257;28;20041;-72
2023/02/15 02:35:11;;;;;;;10.07;7.80;;;20.40;34.10;;;;;;5036442;28;20076;-72
2023/02/15 02:38:03;;;;;;;10.73;7.82;;;20.40;34.00;;;;;;5036207;28;20136;-72
2023/02/15 02:40:52;;;;;;;9.65;7.53;;;20.40;34.00;;;;;;5036375;28;20092;-72
2023/02/15 02:43:35;;;;;;;10.18;7.90;;;20.40;34.00;;;;;;5035472;28;20057;-72
2023/02/15 02:46:20;;;;;;;10.88;8.40;;;20.40;34.00;;;;;;5036048;28;20448;-72
2023/02/15 02:48:49;;;;;;;11.57;8.50;;;20.40;34.00;;;;;;5035668;28;20049;-72
2023/02/15 02:51:21;;;;;;;9.85;7.40;;;20.40;34.00;;;;;;5035589;28;21912;-72
2023/02/15 02:53:53;;;;;;;9.82;7.65;;;20.40;34.00;;;;;;5035902;28;20049;-72
2023/02/15 02:56:27;;;;;;;10.70;7.82;;;20.40;34.00;;;;;;5035990;28;20132;-72
2023/02/15 02:59:04;;;;;;;10.35;7.53;;;20.40;33.90;;;;;;5035776;28;20077;-72
2023/02/15 03:01:45;;;;;;;11.32;8.27;;;20.30;33.90;;;;;;5051356;28;20045;-72
2023/02/15 03:04:23;;;;;;;9.98;7.70;;;20.30;33.80;;;;;;5058431;28;20055;-72
2023/02/15 03:06:57;;;;;;;10.27;7.65;;;20.40;33.90;;;;;;5043748;28;20041;-72
2023/02/15 03:09:42;;;;;;;15.57;8.15;;;20.30;33.90;;;;;;5038799;28;20056;-72
2023/02/15 03:12:29;;;;;;;11.32;7.65;;;20.40;33.90;;;;;;5038861;28;20069;-72
2023/02/15 03:15:08;;;;;;;9.93;7.82;;;20.30;33.80;;;;;;5035676;28;20474;-72
2023/02/15 03:17:40;;;;;;;11.27;7.55;;;20.30;33.80;;;;;;5037016;28;20148;-72
2023/02/15 03:20:14;;;;;;;9.85;7.25;;;20.30;33.80;;;;;;5039596;28;20072;-72
2023/02/15 03:22:50;;;;;;;9.45;7.50;;;20.30;33.80;;;;;;5035361;28;20165;-72
2023/02/15 03:25:32;;;;;;;10.18;7.78;;;20.30;33.80;;;;;;5039048;28;20099;-72
2023/02/15 03:28:05;;;;;;;10.18;7.10;;;20.30;33.80;;;;;;5037034;28;20409;-72
2023/02/15 03:30:33;;;;;;;9.57;7.40;;;20.30;33.80;;;;;;5038287;28;20402;-72
2023/02/15 03:33:03;;;;;;;9.77;7.32;;;20.30;33.70;;;;;;5038678;28;20046;-72
2023/02/15 03:35:43;;;;;;;9.95;7.53;;;20.30;33.70;;;;;;5039412;28;20049;-72
2023/02/15 03:38:17;;;;;;;7.95;6.38;;;20.30;33.70;;;;;;5038195;28;20077;-72
2023/02/15 03:43:54;;;;;;;11.73;7.93;;;20.30;33.70;;;;;;5038912;28;20071;-72
2023/02/15 03:46:45;;;;;;;7.53;6.15;;;20.30;33.70;;;;;;5019814;28;20053;-72
2023/02/15 03:49:24;;;;;;;10.57;7.63;;;20.30;33.70;;;;;;5046271;28;20102;-72
2023/02/15 03:51:55;;;;;;;9.13;6.97;;;20.30;33.70;;;;;;5058458;28;20556;-73
2023/02/15 04:03:33;;;;;;;9.95;7.43;;;20.20;33.60;;;;;;5039434;28;20132;-72
2023/02/15 04:06:02;;;;;;;8.52;6.72;;;20.30;33.60;;;;;;5037342;28;20431;-73
2023/02/15 04:11:17;;;;;;;9.10;6.30;;;20.20;33.60;;;;;;5038002;28;20505;-72
2023/02/15 04:13:44;;;;;;;7.75;5.95;;;20.20;33.60;;;;;;5038914;28;20049;-72
2023/02/15 04:16:11;;;;;;;8.27;6.70;;;20.20;33.60;;;;;;5038624;28;20123;-72
2023/02/15 04:27:05;;;;;;;7.70;6.57;;;20.20;33.50;;;;;;5037401;28;20156;-72
2023/02/15 04:29:32;;;;;;;8.95;6.78;;;20.20;33.50;;;;;;5036240;28;20041;-72
2023/02/15 04:32:01;;;;;;;9.02;6.63;;;20.20;33.50;;;;;;5038224;28;20474;-72
2023/02/15 04:34:28;;;;;;;8.35;6.82;;;20.20;33.60;;;;;;5038051;28;20063;-72
2023/02/15 04:36:56;;;;;;;8.15;6.32;;;20.20;33.50;;;;;;5038271;28;20037;-72
2023/02/15 04:39:23;;;;;;;7.47;6.03;;;20.20;33.50;;;;;;5037461;28;20049;-72
2023/02/15 04:41:50;;;;;;;7.45;6.53;;;20.20;33.40;;;;;;5038011;28;20041;-72
2023/02/15 04:44:17;;;;;;;8.50;6.70;;;20.20;33.40;;;;;;5037942;28;20080;-72
2023/02/15 04:46:44;;;;;;;9.15;6.50;;;20.20;33.50;;;;;;5037123;28;20478;-72
2023/02/15 04:49:11;;;;;;;8.63;6.20;;;20.20;33.40;;;;;;5034730;28;20051;-72
2023/02/15 04:51:38;;;;;;;8.75;6.20;;;20.20;33.40;;;;;;5037199;28;20051;-72
2023/02/15 04:54:06;;;;;;;7.20;6.07;;;20.20;33.40;;;;;;5038780;28;20536;-72
2023/02/15 04:56:34;;;;;;;7.38;5.95;;;20.20;33.40;;;;;;5037776;28;20065;-72
2023/02/15 04:59:01;;;;;;;8.65;5.85;;;20.20;33.40;;;;;;5053084;28;20060;-72
2023/02/15 05:01:29;;;;;;;9.63;5.97;;;20.20;33.40;;;;;;5056192;28;20134;-72
2023/02/15 05:03:56;;;;;;;7.40;6.03;;;20.20;33.30;;;;;;5057315;28;20055;-72
2023/02/15 05:06:23;;;;;;;7.82;6.15;;;20.20;33.30;;;;;;5057995;28;20140;-72
2023/02/15 05:08:50;;;;;;;6.57;5.78;;;20.20;33.30;;;;;;5057226;28;20055;-71
2023/02/15 05:11:17;;;;;;;9.43;6.72;;;20.20;33.30;;;;;;5056940;28;20132;-71
2023/02/15 05:13:45;;;;;;;7.53;5.95;;;20.20;33.30;;;;;;5057086;28;20053;-72
2023/02/15 05:16:12;;;;;;;6.80;6.03;;;20.20;33.30;;;;;;5037592;28;20557;-72
2023/02/15 05:18:39;;;;;;;7.20;5.93;;;20.20;33.80;;;;;;5031862;28;20533;-72
2023/02/15 05:21:06;;;;;;;8.13;6.30;;;20.20;33.80;;;;;;5034488;28;20055;-72
2023/02/15 05:23:33;;;;;;;7.25;6.00;;;20.20;33.20;;;;;;5035902;28;20076;-72
2023/02/15 05:28:47;;;;;;;7.38;6.50;;;20.10;33.20;;;;;;5034099;28;20113;-72
2023/02/15 05:31:17;;;;;;;7.03;5.55;;;20.10;33.20;;;;;;5035747;28;20421;-72
2023/02/15 05:33:45;;;;;;;8.82;6.53;;;20.10;33.10;;;;;;5030400;28;20072;-72
2023/02/15 05:36:13;;;;;;;9.50;7.15;;;20.10;33.10;;;;;;5056844;28;20056;-71
2023/02/15 05:38:40;;;;;;;10.25;7.70;;;20.10;32.90;;;;;;5057353;28;20057;-71
2023/02/15 05:41:08;;;;;;;11.70;8.05;;;20.10;32.70;;;;;;5057049;28;20045;-71
2023/02/15 05:43:36;;;;;;;10.98;8.05;;;20.00;32.60;;;;;;5056878;28;20059;-71
2023/02/15 05:46:04;;;;;;;9.43;7.40;;;20.00;32.60;;;;;;5043532;28;20051;-70
2023/02/15 05:48:32;;;;;;;11.23;7.72;;;20.00;32.70;;;;;;5036948;28;20057;-71
2023/02/15 05:51:06;;;;;;;10.85;8.35;;;20.00;32.70;;;;;;5036827;28;20071;-71
2023/02/15 05:53:36;;;;;;;10.93;7.82;;;19.90;32.60;;;;;;5037311;28;20063;-71
2023/02/15 05:56:04;;;;;;;10.93;7.32;;;19.90;32.60;;;;;;5036810;28;20050;-71
2023/02/15 05:58:34;;;;;;;10.48;7.43;;;19.90;32.60;;;;;;5034691;28;20096;-71
2023/02/15 06:01:13;;;;;;;11.70;7.82;;;20.00;32.70;;;;;;5016692;28;20046;-71
2023/02/15 06:03:40;;;;;;;8.65;6.57;;;20.00;32.70;;;;;;5016854;28;20077;-71
2023/02/15 06:06:08;;;;;;;8.05;6.72;;;20.00;32.70;;;;;;5019372;28;20056;-71
2023/02/15 06:08:36;;;;;;;9.27;7.00;;;20.00;32.80;;;;;;5036254;28;20045;-71
2023/02/15 06:11:04;;;;;;;9.45;7.18;;;20.00;32.70;;;;;;5036052;28;20045;-67
2023/02/15 06:13:32;;;;;;;8.75;7.25;;;20.10;32.80;;;;;;5036486;28;20055;-71
2023/02/15 06:16:01;;;;;;;8.90;6.75;;;20.10;32.80;;;;;;5034468;28;20050;-72
2023/02/15 06:18:29;;;;;;;9.82;7.40;;;20.10;32.70;;;;;;5035761;28;20045;-68
2023/02/15 06:20:56;;;;;;;11.88;8.23;;;20.20;32.80;;;;;;5048662;28;20045;-69
2023/02/15 06:23:23;;;;;;;10.80;8.25;;;20.20;32.70;;;;;;5033758;28;20049;-73
2023/02/15 06:25:50;;;;;;;12.98;9.13;;;20.30;32.60;;;;;;5029392;28;20076;-66
2023/02/15 06:28:18;;;;;;;13.60;8.75;;;20.30;33.10;;;;;;5031813;28;20088;-75
2023/02/15 06:34:35;;;;;;;12.77;9.07;;;20.40;32.60;;;;;;5027078;28;20504;-72
2023/02/15 06:37:02;;;;;;;12.30;9.00;;;20.50;32.60;;;;;;5035050;28;20051;-70
2023/02/15 06:39:56;;;;;;;13.48;9.07;;;20.60;32.60;;;;;;5033402;28;20042;-69
2023/02/15 06:46:23;;;;;;;14.48;9.80;;;20.70;32.30;;;;;;5035743;28;20072;-75
2023/02/15 06:48:53;;;;;;;15.43;9.93;;;20.70;32.10;;;;;;5025874;28;20077;-72
2023/02/15 06:51:23;;;;;;;13.73;10.40;;;20.80;32.10;;;;;;5021782;28;20046;-75
2023/02/15 06:53:53;;;;;;;14.68;10.55;;;20.80;32.00;;;;;;5025228;28;20136;-70
2023/02/15 07:00:46;;;;;;;13.43;10.25;;;20.90;31.90;;;;;;5024877;28;20071;-71
2023/02/15 07:03:21;;;;;;;15.43;10.57;;;21.00;31.90;;;;;;5025524;28;20049;-70
2023/02/15 07:05:48;;;;;;;19.15;10.77;;;21.00;31.90;;;;;;5036235;28;20049;-69
2023/02/15 07:08:19;;;;;;;17.42;12.00;;;21.10;32.60;;;;;;5030908;28;20670;-71
2023/02/15 07:18:34;;;;;;;17.42;12.75;;;21.30;33.00;;;;;;5022224;28;20110;-68
2023/02/15 07:21:10;;;;;;;15.85;12.02;;;21.30;32.90;;;;;;5023010;28;20041;-70
2023/02/15 07:23:40;;;;;;;17.83;12.30;;;21.40;33.30;;;;;;5023335;28;20053;-69
2023/02/15 07:26:08;;;;;;;20.63;12.82;;;21.40;33.60;;;;;;5032818;28;20075;-74
2023/02/15 07:28:36;;;;;;;19.10;11.15;;;21.50;33.80;;;;;;5035608;28;20136;-73
2023/02/15 07:31:05;;;;;;;20.92;13.43;;;21.50;34.00;;;;;;5035592;28;20233;-70
2023/02/15 07:33:33;;;;;;;19.90;13.10;;;21.60;34.00;;;;;;5036168;28;20129;-70
2023/02/15 07:36:53;;;;;;;19.95;12.80;;;21.70;33.90;;;;;;5031951;28;20140;-68
2023/02/15 07:40:23;;;;;;;27.10;14.35;;;21.70;34.10;;;;;;5024174;28;20061;-72
2023/02/15 07:47:09;;;;;;;20.85;14.13;;;21.80;33.80;;;;;;5017731;28;20053;-70
2023/02/15 07:49:36;;;;;;;24.25;14.82;;;21.90;33.70;;;;;;5037462;28;20049;-70
2023/02/15 07:52:04;;;;;;;25.50;15.35;;;22.00;33.60;;;;;;5037346;28;20060;-69
2023/02/15 07:54:31;;;;;;;19.38;14.27;;;22.00;33.40;;;;;;5038283;28;20136;-74
2023/02/15 07:56:58;;;;;;;24.23;16.83;;;22.10;33.40;;;;;;5036023;28;20081;-68
2023/02/15 07:59:33;;;;;;;22.98;15.95;;;22.10;33.40;;;;;;5029896;28;20046;-67
2023/02/15 08:02:00;;;;;;;24.33;15.90;;;22.10;33.10;;;;;;5038738;28;20050;-65
2023/02/15 08:04:27;;;;;;;25.92;17.05;;;22.20;32.90;;;;;;5041169;28;20053;-72
2023/02/15 08:06:54;;;;;;;24.40;16.67;;;22.20;32.70;;;;;;5032882;28;20132;-70
2023/02/15 08:09:59;;;;;;;28.52;17.38;;;22.30;32.80;;;;;;5037844;28;20049;-67
2023/02/15 08:13:25;;;;;;;29.08;17.50;;;22.40;32.80;;;;;;5030047;28;20187;-69
2023/02/15 08:19:42;;;;;;;29.33;19.33;;;22.40;32.70;;;;;;5041376;28;20099;-67
2023/02/15 08:22:13;;;;;;;28.30;19.15;;;22.50;32.80;;;;;;5057459;28;20059;-71
2023/02/15 08:25:31;;;;;;;30.80;19.48;;;22.60;32.70;;;;;;5052482;28;20141;-71
2023/02/15 08:27:58;;;;;;;31.65;22.08;;;22.60;32.60;;;;;;5023671;28;20049;-71
2023/02/15 08:30:26;;;;;;;32.25;20.15;;;22.60;32.50;;;;;;5038179;28;20079;-71
2023/02/15 08:32:53;;;;;;;28.63;20.58;;;22.70;32.50;;;;;;5038303;28;20195;-71
2023/02/15 08:35:20;;;;;;;32.40;21.73;;;22.70;32.50;;;;;;5038638;28;20378;-72
2023/02/15 08:37:47;;;;;;;34.42;21.15;;;22.70;32.40;;;;;;5037610;28;20137;-71
2023/02/15 08:40:14;;;;;;;35.80;22.65;;;22.80;32.50;;;;;;5025052;28;20092;-68
2023/02/15 08:42:41;;;;;;;35.75;22.83;;;22.80;32.40;;;;;;5030154;28;20073;-73
2023/02/15 08:45:08;;;;;;;35.15;22.60;;;22.90;32.40;;;;;;5037843;28;20136;-73
2023/02/15 08:47:35;;;;;;;30.17;21.00;;;22.90;32.30;;;;;;5029126;28;20067;-76
2023/02/15 09:01:17;;;;;;;38.33;23.25;;;23.20;32.00;;;;;;5033200;28;20092;-68
2023/02/15 09:03:46;;;;;;;29.35;21.23;;;23.20;31.90;;;;;;5036681;28;20060;-73
2023/02/15 09:06:15;;;;;;;33.92;22.05;;;23.30;31.80;;;;;;5037184;28;20045;-68
2023/02/15 09:09:10;;;;;;;34.38;23.35;;;23.30;31.70;;;;;;5029490;28;20089;-72
2023/02/15 09:11:44;;;;;;;34.03;22.55;;;23.40;31.70;;;;;;5029457;28;20140;-67
2023/02/15 09:14:14;;;;;;;33.63;22.73;;;23.40;31.80;;;;;;5023349;28;20144;-68
2023/02/15 09:16:42;;;;;;;;;;;23.40;31.90;;;;;;5021901;23;20050;-72
2023/02/15 09:23:19;;;;;;;29.15;20.77;;;23.50;31.70;;;;;;4990068;28;20151;-66
2023/02/15 09:25:52;;;;;;;31.13;20.70;;;23.60;32.20;;;;;;4990746;28;20058;-65
2023/02/15 09:43:46;;;;;;;27.67;18.10;;;23.90;33.00;;;;;;4997057;28;20061;-66
2023/02/15 09:46:33;;;;;;;24.98;18.73;;;23.90;32.20;;;;;;4996802;28;20130;-71
2023/02/15 09:49:24;;;;;;;24.38;16.73;;;24.00;31.80;;;;;;4995875;28;20141;-66
2023/02/15 09:52:20;;;;;;;26.58;16.38;;;23.90;31.40;;;;;;4996361;28;20125;-73
2023/02/15 09:55:27;;;;;;;23.40;16.00;;;24.00;31.30;;;;;;4992766;28;20050;-67
2023/02/15 09:58:31;;;;;;;21.10;15.23;;;24.10;31.20;;;;;;4996629;28;20053;-68
2023/02/15 10:01:30;;;;;;;22.10;15.07;;;24.10;31.00;;;;;;4996690;28;20050;-66
2023/02/15 10:04:39;;;;;;;22.47;16.03;;;24.10;30.80;;;;;;4994809;28;20057;-73
2023/02/15 10:07:37;;;;;;;19.90;14.98;;;24.10;30.80;;;;;;4989007;28;20641;-68
2023/02/15 10:10:18;;;;;;;20.40;14.35;;;24.10;30.80;;;;;;4977093;28;20065;-73
2023/02/15 10:13:39;;;;;;;19.10;13.60;;;24.20;31.00;;;;;;4979445;28;20647;-71
2023/02/15 10:27:35;;;;;;;16.58;11.98;;;24.30;31.10;;;;;;4967874;28;20049;-67
2023/02/15 10:38:34;;;;;;;16.50;11.55;;;24.50;31.10;;;;;;4976480;28;20042;-68
2023/02/15 10:41:12;;;;;;;14.27;11.27;;;24.60;31.30;;;;;;4987752;28;20074;-72
2023/02/15 10:44:19;;;;;;;13.73;10.65;;;24.60;31.20;;;;;;4989493;28;20070;-72
2023/02/15 10:47:05;;;;;;;20.85;10.50;;;24.70;31.10;;;;;;4983724;28;20085;-66
2023/02/15 10:53:49;;;;;;;14.40;10.55;;;24.70;31.00;;;;;;4946823;29;20086;-67
2023/02/15 10:57:04;;;;;;;13.95;9.88;;;24.70;30.80;;;;;;5087146;28;20460;-66
2023/02/15 11:00:11;;;;;;;14.48;10.15;;;24.80;30.70;;;;;;5077059;28;20055;-70
2023/02/15 11:03:18;;;;;;;11.98;8.73;;;24.80;30.60;;;;;;5049415;28;20045;-67
2023/02/15 11:06:04;;;;;;;12.93;9.40;;;24.80;30.70;;;;;;5050397;28;20043;-68
2023/02/15 11:08:37;;;;;;;9.95;8.25;;;24.90;30.40;;;;;;5059275;28;20053;-66
2023/02/15 11:11:19;;;;;;;12.57;9.02;;;24.90;30.30;;;;;;5055882;28;20139;-66
2023/02/15 11:13:51;;;;;;;10.85;8.85;;;24.90;30.10;;;;;;5058030;28;20143;-66
2023/02/15 11:16:36;;;;;;;13.65;8.68;;;24.90;30.00;;;;;;5063902;28;20088;-68
2023/02/15 11:19:17;;;;;;;13.88;8.68;;;24.90;30.00;;;;;;5058744;28;20068;-68
2023/02/15 11:21:51;;;;;;;10.80;7.72;;;24.90;30.00;;;;;;5062708;28;20053;-67
2023/02/15 11:24:20;;;;;;;11.27;7.75;;;24.90;30.00;;;;;;5059983;28;20071;-68
2023/02/15 11:26:57;;;;;;;10.02;7.68;;;24.90;29.90;;;;;;5061163;28;20045;-68
2023/02/15 11:30:04;;;;;;;11.55;8.65;;;24.90;29.90;;;;;;5060301;28;20064;-68
2023/02/15 11:32:35;;;;;;;11.15;8.20;;;24.90;29.80;;;;;;5058382;28;20144;-69
2023/02/15 11:35:21;;;;;;;10.98;7.97;;;24.90;29.80;;;;;;5056806;28;21256;-69
2023/02/15 11:37:54;;;;;;;10.35;7.53;;;24.90;29.70;;;;;;5058833;28;20045;-69
2023/02/15 11:40:28;;;;;;;10.10;7.97;;;24.90;29.70;;;;;;5061389;28;20056;-66
2023/02/15 11:43:06;;;;;;;13.50;7.65;;;24.90;29.70;;;;;;5059213;28;20060;-66
2023/02/15 11:45:34;;;;;;;9.68;7.60;;;24.90;29.80;;;;;;5059910;28;20127;-66
2023/02/15 11:48:10;;;;;;;11.25;7.55;;;24.90;29.80;;;;;;5059532;28;20057;-64
2023/02/15 11:50:37;;;;;;;10.15;7.43;;;24.90;29.90;;;;;;5061596;28;20059;-67
2023/02/15 11:53:11;;;;;;;8.35;6.60;;;24.90;29.80;;;;;;5062406;28;20543;-68
2023/02/15 11:55:39;;;;;;;7.88;6.78;;;24.90;29.80;;;;;;5060510;28;20061;-68
2023/02/15 11:58:41;;;;;;;10.35;6.85;;;24.80;29.80;;;;;;5053922;28;20049;-69
2023/02/15 12:01:23;;;;;;;8.50;6.90;;;24.80;29.80;;;;;;5057884;28;20109;-71
2023/02/15 12:03:55;;;;;;;11.05;6.70;;;24.80;29.80;;;;;;5065295;28;20421;-69
2023/02/15 12:06:38;;;;;;;9.40;7.00;;;24.80;29.90;;;;;;5057066;28;20110;-70
2023/02/15 12:09:46;;;;;;;7.38;6.05;;;24.80;29.80;;;;;;5046663;28;20171;-66
2023/02/15 12:12:30;;;;;;;8.52;6.28;;;24.80;29.80;;;;;;5043950;28;20053;-65
2023/02/15 12:15:02;;;;;;;10.10;7.03;;;24.80;29.80;;;;;;5050392;28;20049;-61
2023/02/15 12:17:39;;;;;;;8.38;5.95;;;24.80;29.80;;;;;;5047684;28;20103;-63
2023/02/15 12:20:27;;;;;;;7.18;6.18;;;24.80;29.80;;;;;;5046832;28;20408;-62
2023/02/15 12:23:03;;;;;;;8.75;6.60;;;24.80;29.70;;;;;;5045450;28;20048;-61
2023/02/15 12:25:51;;;;;;;8.02;6.43;;;24.80;29.70;;;;;;5048127;28;20243;-61
2023/02/15 12:28:44;;;;;;;7.93;5.88;;;24.80;29.80;;;;;;5048220;28;20140;-61
2023/02/15 12:31:26;;;;;;;7.40;5.80;;;24.80;29.70;;;;;;5051360;28;20079;-62
2023/02/15 12:33:57;;;;;;;7.57;5.97;;;24.70;29.70;;;;;;5048517;28;20501;-63
2023/02/15 12:36:31;;;;;;;7.32;5.55;;;24.80;29.70;;;;;;5045277;28;20053;-62
2023/02/15 12:39:20;;;;;;;8.43;6.00;;;24.80;29.70;;;;;;5042984;28;20045;-62
2023/02/15 12:42:05;;;;;;;9.52;6.60;;;24.70;29.70;;;;;;5033348;28;20069;-62
2023/02/15 12:44:34;;;;;;;7.43;6.40;;;24.70;29.60;;;;;;5047296;28;20053;-62
2023/02/15 12:47:19;;;;;;;7.88;5.88;;;24.80;29.70;;;;;;5048957;28;20053;-61
2023/02/15 12:50:09;;;;;;;7.95;5.55;;;24.70;29.70;;;;;;5045805;28;20140;-62
2023/02/15 12:52:39;;;;;;;11.43;6.57;;;24.80;29.70;;;;;;5047972;28;20452;-62
2023/02/15 12:55:20;;;;;;;8.45;6.25;;;24.70;29.70;;;;;;5044353;28;20063;-62
2023/02/15 12:57:47;;;;;;;;;;;24.80;29.70;;;;;;5046066;28;20435;-62
2023/02/15 13:00:31;;;;;;;8.23;6.10;;;24.80;29.70;;;;;;5050368;28;20459;-63
2023/02/15 13:03:00;;;;;;;7.65;5.60;;;24.80;29.90;;;;;;5048636;28;20037;-62
2023/02/15 13:05:39;;;;;;;10.48;6.25;;;24.70;29.60;;;;;;5046522;28;20036;-62
2023/02/15 13:08:29;;;;;;;8.20;6.35;;;24.80;29.70;;;;;;5046624;28;20090;-61
2023/02/15 13:11:04;;;;;;;6.20;5.05;;;24.70;29.60;;;;;;5048791;28;20075;-61
2023/02/15 13:13:35;;;;;;;7.80;5.70;;;24.70;29.70;;;;;;5045424;28;20053;-61
2023/02/15 13:16:10;;;;;;;8.45;5.60;;;24.80;29.80;;;;;;5044187;28;20045;-62
2023/02/15 13:18:46;;;;;;;8.27;5.82;;;24.80;29.80;;;;;;5041680;28;20057;-62
2023/02/15 13:21:18;;;;;;;7.00;5.53;;;24.80;29.80;;;;;;5044767;28;20131;-63
2023/02/15 13:23:51;;;;;;;7.53;4.82;;;24.70;29.80;;;;;;5044282;28;20041;-62
2023/02/15 13:26:21;;;;;;;6.53;5.43;;;24.80;29.80;;;;;;5043372;28;20049;-63
2023/02/15 13:28:58;;;;;;;8.30;5.63;;;24.70;29.80;;;;;;5044476;28;20496;-63
2023/02/15 13:31:31;;;;;;;7.88;5.97;;;24.70;29.80;;;;;;5049043;28;20147;-63
2023/02/15 13:34:12;;;;;;;7.10;5.88;;;24.70;29.90;;;;;;5041411;28;20289;-63
2023/02/15 13:37:08;;;;;;;8.02;5.40;;;24.70;29.90;;;;;;5039917;28;20052;-63
2023/02/15 13:39:58;;;;;;;7.55;5.35;;;24.70;29.90;;;;;;5042328;28;20048;-63
2023/02/15 13:42:46;;;;;;;7.07;5.57;;;24.80;29.90;;;;;;5044594;28;20128;-66
2023/02/15 13:45:39;;;;;;;9.23;5.80;;;24.70;29.90;;;;;;5039332;28;20072;-62
2023/02/15 13:48:22;;;;;;;7.60;6.15;;;24.80;29.90;;;;;;5039720;28;20049;-64
2023/02/15 13:51:39;;;;;;;7.63;5.88;;;24.80;29.90;;;;;;5038976;28;20053;-62
2023/02/15 13:54:46;;;;;;;8.38;5.70;;;24.70;29.80;;;;;;5043809;28;20053;-60
2023/02/15 13:57:39;;;;;;;8.77;5.95;;;24.80;29.80;;;;;;5045656;28;20048;-64
2023/02/15 14:00:30;;;;;;;10.23;6.55;;;24.80;29.80;;;;;;5046589;28;20103;-62
2023/02/15 14:03:37;;;;;;;8.93;6.53;;;24.70;29.80;;;;;;5044282;28;20467;-62
2023/02/15 14:06:40;;;;;;;11.88;6.32;;;24.70;29.80;;;;;;5039412;28;20049;-64
2023/02/15 14:09:47;;;;;;;9.70;6.25;;;24.70;29.80;;;;;;5037440;28;20049;-64
2023/02/15 14:12:45;;;;;;;7.80;6.05;;;24.70;29.80;;;;;;5042493;28;20036;-62
2023/02/15 14:15:36;;;;;;;8.02;5.85;;;24.70;29.80;;;;;;5041495;28;20131;-63
2023/02/15 14:18:25;;;;;;;9.90;6.18;;;24.70;29.80;;;;;;5041959;28;20143;-61
2023/02/15 14:21:19;;;;;;;9.45;6.20;;;24.70;30.00;;;;;;5038852;28;20041;-61
2023/02/15 14:24:17;;;;;;;8.70;6.43;;;24.70;30.00;;;;;;5046634;28;20139;-62
2023/02/15 14:27:00;;;;;;;11.75;6.05;;;24.70;30.00;;;;;;5044200;28;20106;-62
2023/02/15 14:29:56;;;;;;;8.25;6.97;;;24.70;30.00;;;;;;5042830;28;20653;-63
2023/02/15 14:32:40;;;;;;;10.50;6.65;;;24.70;30.00;;;;;;5038388;28;20102;-61
2023/02/15 14:35:24;;;;;;;9.18;6.90;;;24.70;30.10;;;;;;5047520;28;20052;-61
2023/02/15 14:38:31;;;;;;;10.68;6.28;;;24.70;30.40;;;;;;5045550;28;20063;-61
2023/02/15 14:41:23;;;;;;;8.43;5.55;;;24.70;30.60;;;;;;5039599;28;20049;-63
2023/02/15 14:44:15;;;;;;;10.50;7.45;;;24.70;30.60;;;;;;5029112;28;20106;-61
2023/02/15 14:46:58;;;;;;;7.57;6.47;;;24.70;30.70;;;;;;5032096;28;20500;-61
2023/02/15 14:49:35;;;;;;;8.68;6.30;;;24.70;30.70;;;;;;5042364;28;20423;-60
2023/02/15 14:52:10;;;;;;;8.55;5.78;;;24.70;30.80;;;;;;5043493;28;20079;-60
2023/02/15 14:54:58;;;;;;;13.65;6.90;;;24.70;30.80;;;;;;5045664;28;20056;-61
2023/02/15 14:57:27;;;;;;;9.27;6.25;;;24.70;30.70;;;;;;5048679;28;20132;-62
2023/02/15 14:59:59;;;;;;;9.63;7.55;;;24.70;30.70;;;;;;5047477;28;20048;-63
2023/02/15 15:02:49;;;;;;;9.43;6.18;;;24.70;30.60;;;;;;5045079;28;20102;-63
2023/02/15 15:05:32;;;;;;;9.45;6.25;;;24.70;30.60;;;;;;5046176;28;20119;-62
2023/02/15 15:08:01;;;;;;;8.82;6.07;;;24.60;30.70;;;;;;5044653;28;20473;-64
2023/02/15 15:10:41;;;;;;;9.48;6.30;;;24.60;30.60;;;;;;5043440;28;20143;-62
2023/02/15 15:13:35;;;;;;;7.88;6.60;;;24.70;30.60;;;;;;5043136;28;20228;-65
2023/02/15 15:16:43;;;;;;;8.60;5.97;;;24.70;30.70;;;;;;5046266;28;20480;-66
2023/02/15 15:19:11;;;;;;;9.85;6.45;;;24.60;30.90;;;;;;5044709;28;20057;-66
2023/02/15 15:22:02;;;;;;;8.05;5.93;;;24.60;31.00;;;;;;5046155;28;20044;-60
2023/02/15 15:24:53;;;;;;;8.32;6.30;;;24.50;31.10;;;;;;5043878;28;20461;-61